Time;durP1;ratioP1;P1;durP2;ratioP2;P2;SDS_P1;SDS_P2;PMS_P1;PMS_P2;Temp;Humidity;BMP_temperature;BMP_pressure;BME280_temperature;BME280_humidity;BME280_pressure;Samples;Min_cycle;Max_cycle;Signal;HPM_P1;HPM_P2
2022/03/04 00:00:47;;;;;;;28.17;12.20;;;;;;;0.96;55.22;99500.50;5095254;28;20044;-75
2022/03/04 00:03:16;;;;;;;32.63;12.85;;;;;;;0.95;55.68;99502.16;5095051;28;20766;-75
2022/03/04 00:05:47;;;;;;;30.23;12.85;;;;;;;0.86;55.76;99486.78;5094854;28;20094;-75
2022/03/04 00:08:16;;;;;;;29.30;12.57;;;;;;;0.91;56.11;99490.28;5093588;28;20071;-75
2022/03/04 00:10:45;;;;;;;26.17;12.27;;;;;;;0.98;56.06;99501.41;5094606;28;20119;-75
2022/03/04 00:13:14;;;;;;;30.83;13.05;;;;;;;0.56;55.92;99425.44;5094614;28;20051;-76
2022/03/04 00:15:44;;;;;;;35.42;12.27;;;;;;;0.85;56.16;99469.13;5095254;28;20486;-75
2022/03/04 00:18:12;;;;;;;36.87;13.97;;;;;;;1.01;55.85;99499.84;5095707;28;20051;-76
2022/03/04 00:20:42;;;;;;;35.28;13.30;;;;;;;1.02;55.87;99504.06;5096770;28;20040;-75
2022/03/04 00:23:13;;;;;;;36.73;13.67;;;;;;;0.99;56.20;99508.97;5093232;28;20044;-75
2022/03/04 00:25:42;;;;;;;31.20;13.30;;;;;;;0.94;56.03;99513.00;5094998;28;20048;-75
2022/03/04 00:28:11;;;;;;;37.85;15.65;;;;;;;0.90;56.32;99506.16;5094286;28;20130;-75
2022/03/04 00:30:40;;;;;;;33.05;13.95;;;;;;;0.87;56.15;99503.53;5094914;28;20108;-75
2022/03/04 00:33:09;;;;;;;40.38;15.27;;;;;;;0.86;56.61;99506.88;5094514;28;20074;-74
2022/03/04 00:35:39;;;;;;;41.70;15.07;;;;;;;0.85;56.32;99514.31;5094279;28;20040;-73
2022/03/04 00:38:08;;;;;;;;;;;;;;;0.84;56.52;99503.41;5095132;28;20066;-73
2022/03/04 00:40:38;;;;;;;34.15;13.93;;;;;;;0.67;56.72;99505.34;5094422;28;20312;-73
2022/03/04 00:43:07;;;;;;;34.85;15.45;;;;;;;0.75;56.78;99504.75;5094174;28;20044;-73
2022/03/04 00:45:36;;;;;;;34.80;14.50;;;;;;;0.66;57.17;99497.78;5094139;28;20089;-73
2022/03/04 00:48:06;;;;;;;36.92;13.73;;;;;;;0.61;57.18;99509.31;5094264;28;20493;-73
2022/03/04 00:50:35;;;;;;;29.25;12.75;;;;;;;0.82;57.24;99502.50;5094629;28;20406;-73
2022/03/04 00:53:04;;;;;;;33.83;14.30;;;;;;;0.69;56.87;99507.94;5093912;28;20048;-73
2022/03/04 00:55:38;;;;;;;32.13;13.35;;;;;;;0.76;57.38;99504.84;5093427;28;20494;-73
2022/03/04 00:58:08;;;;;;;30.48;12.32;;;;;;;0.72;57.23;99477.88;5094221;28;20566;-73
2022/03/04 01:00:37;;;;;;;35.80;14.20;;;;;;;0.82;57.25;99494.97;5093882;28;20489;-73
2022/03/04 01:03:06;;;;;;;29.90;13.15;;;;;;;0.94;57.02;99495.41;5094541;28;20036;-73
2022/03/04 01:05:35;;;;;;;32.47;13.57;;;;;;;0.99;57.18;99496.41;5093688;28;20039;-73
2022/03/04 01:08:04;;;;;;;31.30;12.93;;;;;;;1.02;56.85;99494.00;5093697;28;20044;-73
2022/03/04 01:10:33;;;;;;;30.15;13.57;;;;;;;1.00;56.98;99495.63;5093588;28;20069;-73
2022/03/04 01:13:04;;;;;;;29.23;13.13;;;;;;;0.95;57.04;99487.06;5094004;28;20062;-73
2022/03/04 01:15:35;;;;;;;32.60;13.43;;;;;;;0.88;56.99;99484.31;5094305;28;20055;-73
2022/03/04 01:18:05;;;;;;;36.03;14.77;;;;;;;0.77;57.15;99486.44;5092686;28;20048;-73
2022/03/04 01:20:34;;;;;;;;;;;;;;;0.71;57.51;99481.22;5094404;28;20044;-73
2022/03/04 01:23:03;;;;;;;37.03;14.55;;;;;;;0.69;57.54;99472.78;5093572;28;19920;-73
2022/03/04 01:25:32;;;;;;;;;;;;;;;0.71;57.51;99481.22;5094231;28;20444;-73
2022/03/04 01:28:01;;;;;;;39.42;13.45;;;;;;;0.55;57.29;99453.88;5094518;28;19931;-73
2022/03/04 01:30:32;;;;;;;35.22;13.95;;;;;;;0.71;57.54;99481.22;5093859;28;20052;-73
2022/03/04 01:33:01;;;;;;;35.42;13.98;;;;;;;0.64;57.56;99474.28;5093525;28;20071;-73
2022/03/04 01:35:30;;;;;;;29.33;14.15;;;;;;;0.65;57.63;99480.97;5093412;28;20486;-73
2022/03/04 01:37:59;;;;;;;35.25;14.02;;;;;;;0.61;57.79;99479.19;5093821;28;20093;-73
2022/03/04 01:40:28;;;;;;;31.40;13.17;;;;;;;0.64;57.99;99474.28;5092689;28;20051;-73
2022/03/04 01:42:57;;;;;;;36.25;14.80;;;;;;;0.70;57.85;99474.47;5093417;28;20152;-73
2022/03/04 01:45:27;;;;;;;34.53;14.00;;;;;;;0.76;57.99;99479.72;5093355;28;20040;-73
2022/03/04 01:47:57;;;;;;;32.45;14.18;;;;;;;0.74;58.06;99478.81;5092103;28;20036;-73
2022/03/04 01:50:27;;;;;;;35.35;14.27;;;;;;;0.86;57.97;99479.25;5093416;28;20082;-73
2022/03/04 01:52:56;;;;;;;37.83;14.20;;;;;;;0.87;57.76;99480.94;5093706;28;20094;-73
2022/03/04 01:55:26;;;;;;;37.53;14.80;;;;;;;0.81;57.81;99483.25;5093548;28;20070;-73
2022/03/04 01:57:55;;;;;;;36.30;15.17;;;;;;;0.77;58.04;99481.41;5093370;28;20040;-73
2022/03/04 02:00:26;;;;;;;37.30;15.38;;;;;;;0.70;58.19;99484.50;5093390;28;20058;-73
2022/03/04 02:02:57;;;;;;;33.67;15.37;;;;;;;0.67;58.20;99489.44;5093588;28;20036;-73
2022/03/04 02:05:28;;;;;;;35.80;14.90;;;;;;;0.65;58.51;99480.97;5093264;28;20047;-73
2022/03/04 02:07:57;;;;;;;35.92;15.48;;;;;;;0.61;58.35;99485.06;5094962;28;20068;-73
2022/03/04 02:10:26;;;;;;;33.78;14.80;;;;;;;0.63;58.69;99487.59;5096846;28;20044;-73
2022/03/04 02:12:55;;;;;;;41.00;16.35;;;;;;;0.64;58.71;99489.34;5097257;28;20467;-72
2022/03/04 02:15:25;;;;;;;33.20;15.45;;;;;;;0.59;58.79;99493.34;5096932;28;20059;-73
2022/03/04 02:17:53;;;;;;;42.20;13.70;;;;;;;0.62;58.47;99491.78;5097078;28;20052;-73
2022/03/04 02:20:23;;;;;;;37.83;15.50;;;;;;;0.68;58.69;99483.59;5063437;28;20043;-73
2022/03/04 02:22:53;;;;;;;34.75;15.27;;;;;;;0.70;58.69;99484.50;5096790;28;20048;-73
2022/03/04 02:25:22;;;;;;;36.30;15.30;;;;;;;0.73;58.56;99486.28;5096752;28;20072;-72
2022/03/04 02:27:51;;;;;;;33.57;13.47;;;;;;;0.78;58.76;99493.19;5096902;28;20074;-73
2022/03/04 02:30:20;;;;;;;38.90;15.40;;;;;;;0.64;59.21;99480.16;5096650;28;20039;-73
2022/03/04 02:32:49;;;;;;;37.20;15.45;;;;;;;0.77;59.10;99491.44;5097562;28;20036;-73
2022/03/04 02:35:18;;;;;;;37.50;17.52;;;;;;;0.77;58.93;99490.63;5096546;28;20044;-72
2022/03/04 02:37:47;;;;;;;38.77;15.23;;;;;;;0.81;58.85;99487.41;5096454;28;20044;-73
2022/03/04 02:40:17;;;;;;;40.22;16.10;;;;;;;0.80;59.14;99496.59;5096519;28;20068;-73
2022/03/04 02:42:46;;;;;;;42.40;17.70;;;;;;;0.75;59.28;99493.06;5096799;28;20527;-73
2022/03/04 02:45:15;;;;;;;44.03;17.37;;;;;;;0.71;59.59;99505.47;5096235;28;20037;-73
2022/03/04 02:47:44;;;;;;;43.67;17.47;;;;;;;0.69;59.51;99497.88;5096852;28;20508;-73
2022/03/04 02:50:13;;;;;;;34.65;12.57;;;;;;;0.66;59.87;99502.78;5096230;28;20273;-73
2022/03/04 02:52:42;;;;;;;40.80;16.85;;;;;;;0.66;60.06;99500.28;5096130;28;20036;-73
2022/03/04 02:55:12;;;;;;;44.83;18.42;;;;;;;0.63;60.11;99503.53;5096501;28;20101;-73
2022/03/04 02:57:44;;;;;;;43.58;18.15;;;;;;;0.59;60.29;99505.88;5096316;28;20036;-73
2022/03/04 03:00:15;;;;;;;48.25;18.88;;;;;;;0.56;60.53;99508.28;5096146;28;20126;-73
2022/03/04 03:02:45;;;;;;;49.97;18.60;;;;;;;0.56;60.49;99510.78;5096382;28;20052;-73
2022/03/04 03:05:14;;;;;;;44.42;18.67;;;;;;;0.53;60.56;99508.16;5096316;28;20383;-73
2022/03/04 03:07:44;;;;;;;48.28;18.48;;;;;;;0.50;60.95;99513.09;5095878;28;20125;-73
2022/03/04 03:10:13;;;;;;;36.07;14.23;;;;;;;0.52;61.18;99519.03;5095724;28;20509;-73
2022/03/04 03:12:44;;;;;;;52.60;19.42;;;;;;;0.42;60.98;99507.78;5095798;28;20050;-73
2022/03/04 03:15:13;;;;;;;47.60;19.58;;;;;;;0.50;61.28;99520.63;5096158;28;20040;-73
2022/03/04 03:17:42;;;;;;;54.58;20.67;;;;;;;0.45;61.44;99527.13;5095550;28;20056;-73
2022/03/04 03:20:13;;;;;;;48.03;21.00;;;;;;;0.37;61.60;99518.47;5095470;28;20158;-72
2022/03/04 03:22:42;;;;;;;59.00;21.17;;;;;;;0.43;61.45;99526.22;5095677;28;20044;-72
2022/03/04 03:25:12;;;;;;;34.70;14.53;;;;;;;0.41;61.55;99526.16;5095583;28;20052;-72
2022/03/04 03:27:41;;;;;;;50.40;18.75;;;;;;;0.35;61.48;99525.94;5094511;28;20036;-73
2022/03/04 03:30:13;;;;;;;43.50;19.27;;;;;;;0.39;61.41;99531.91;5095822;28;20047;-73
2022/03/04 03:32:42;;;;;;;44.45;18.40;;;;;;;0.36;61.48;99531.81;5095577;28;20493;-74
2022/03/04 03:35:11;;;;;;;46.17;18.77;;;;;;;0.33;61.68;99531.69;5095818;28;20493;-74
2022/03/04 03:37:40;;;;;;;58.65;21.00;;;;;;;0.31;62.03;99530.78;5095813;28;20037;-73
2022/03/04 03:40:11;;;;;;;52.45;20.27;;;;;;;0.37;62.08;99539.41;5095283;28;20059;-73
2022/03/04 03:42:41;;;;;;;51.80;19.50;;;;;;;0.38;61.91;99541.13;5095896;28;20435;-73
2022/03/04 03:45:12;;;;;;;;;;;;;;;0.40;61.90;99542.03;5096005;28;20036;-73
2022/03/04 03:47:42;;;;;;;55.75;20.13;;;;;;;0.39;62.18;99537.78;5095558;28;19931;-73
2022/03/04 03:50:12;;;;;;;51.95;21.17;;;;;;;0.39;62.44;99542.81;5095007;28;20059;-73
2022/03/04 03:52:41;;;;;;;54.17;21.42;;;;;;;0.44;62.57;99545.50;5095170;28;20436;-73
2022/03/04 03:55:11;;;;;;;57.53;20.90;;;;;;;0.49;62.58;99539.00;5095338;28;20051;-73
2022/03/04 03:57:40;;;;;;;67.90;22.85;;;;;;;0.56;63.08;99545.94;5095004;28;20080;-74
2022/03/04 04:00:12;;;;;;;56.07;22.03;;;;;;;0.63;63.20;99543.72;5094765;28;20486;-73
2022/03/04 04:02:41;;;;;;;66.10;21.08;;;;;;;0.13;63.53;99462.34;5095523;28;20044;-73
2022/03/04 04:05:12;;;;;;;61.03;22.73;;;;;;;0.62;63.47;99551.19;5095384;28;20149;-73
2022/03/04 04:07:41;;;;;;;55.28;21.13;;;;;;;0.64;63.59;99555.47;5095101;28;20497;-73
2022/03/04 04:10:10;;;;;;;54.63;20.70;;;;;;;0.64;63.41;99545.44;5094362;28;20125;-73
2022/03/04 04:12:39;;;;;;;58.25;21.17;;;;;;;0.70;63.40;99548.97;5094717;28;20040;-73
2022/03/04 04:15:09;;;;;;;54.67;21.08;;;;;;;0.68;63.46;99551.41;5094648;28;20040;-72
2022/03/04 04:17:39;;;;;;;56.75;21.83;;;;;;;0.66;63.81;99568.06;5096018;28;20040;-73
2022/03/04 04:20:09;;;;;;;59.55;21.15;;;;;;;0.71;63.68;99551.53;5096357;28;20040;-72
2022/03/04 04:22:38;;;;;;;59.33;21.00;;;;;;;0.75;64.18;99558.34;5094463;28;20048;-73
2022/03/04 04:25:08;;;;;;;58.50;21.33;;;;;;;0.74;63.63;99565.84;5094702;28;20081;-73
2022/03/04 04:27:37;;;;;;;58.85;21.02;;;;;;;0.82;63.81;99557.78;5094442;28;20052;-73
2022/03/04 04:30:08;;;;;;;57.15;21.50;;;;;;;0.81;63.68;99563.63;5093797;28;20078;-72
2022/03/04 04:32:37;;;;;;;57.33;21.33;;;;;;;0.84;63.95;99562.88;5094362;28;20040;-73
2022/03/04 04:35:08;;;;;;;53.13;20.90;;;;;;;0.86;63.56;99563.78;5094309;28;20382;-73
2022/03/04 04:37:37;;;;;;;57.88;21.70;;;;;;;0.75;63.74;99530.72;5094304;28;20048;-73
2022/03/04 04:40:07;;;;;;;58.28;21.88;;;;;;;0.93;64.04;99565.69;5094490;28;20062;-72
2022/03/04 04:42:36;;;;;;;55.75;22.02;;;;;;;0.93;63.73;99559.03;5094421;28;20048;-73
2022/03/04 04:45:07;;;;;;;55.35;20.73;;;;;;;0.97;63.85;99570.88;5094130;28;20056;-73
2022/03/04 04:47:36;;;;;;;54.58;20.35;;;;;;;0.98;63.51;99572.59;5092997;28;20097;-73
2022/03/04 04:50:07;;;;;;;57.00;20.90;;;;;;;0.96;63.74;99573.34;5094271;28;20485;-73
2022/03/04 04:52:37;;;;;;;69.35;23.27;;;;;;;1.04;63.69;99582.00;5094269;28;20044;-73
2022/03/04 04:55:06;;;;;;;62.25;21.73;;;;;;;1.00;63.60;99571.00;5094560;28;20081;-73
2022/03/04 04:57:35;;;;;;;60.40;22.65;;;;;;;1.03;63.69;99578.63;5094232;28;20035;-73
2022/03/04 05:00:06;;;;;;;42.90;17.30;;;;;;;0.98;63.54;99582.66;5093871;28;20117;-73
2022/03/04 05:02:35;;;;;;;64.70;22.52;;;;;;;0.99;63.81;99584.34;5093837;28;20055;-73
2022/03/04 05:05:07;;;;;;;52.83;20.65;;;;;;;1.02;63.80;99589.47;5093928;28;20059;-73
2022/03/04 05:07:37;;;;;;;59.30;21.77;;;;;;;0.97;63.74;99601.03;5093800;28;20052;-73
2022/03/04 05:10:07;;;;;;;46.83;16.40;;;;;;;0.96;64.34;99591.75;5093518;28;20052;-73
2022/03/04 05:12:35;;;;;;;;;;;;;;;0.99;63.97;99603.59;5094540;28;20494;-73
2022/03/04 05:15:05;;;;;;;55.08;19.00;;;;;;;0.91;63.96;99595.75;5093657;28;19920;-73
2022/03/04 05:17:34;;;;;;;51.85;19.60;;;;;;;0.89;64.29;99597.38;5093665;28;20047;-73
2022/03/04 05:20:04;;;;;;;52.78;21.88;;;;;;;0.89;64.12;99597.38;5093966;28;20067;-73
2022/03/04 05:22:34;;;;;;;51.05;22.45;;;;;;;0.90;64.36;99599.09;5093943;28;20517;-73
2022/03/04 05:25:03;;;;;;;55.40;22.00;;;;;;;0.87;64.59;99598.97;5093735;28;20076;-73
2022/03/04 05:27:32;;;;;;;62.35;21.75;;;;;;;0.87;64.43;99601.50;5093948;28;20503;-73
2022/03/04 05:30:01;;;;;;;66.28;22.73;;;;;;;0.89;64.55;99607.41;5093543;28;20032;-73
2022/03/04 05:32:31;;;;;;;53.13;20.58;;;;;;;0.95;64.55;99606.78;5093650;28;20441;-73
2022/03/04 05:35:00;;;;;;;57.30;21.13;;;;;;;0.95;64.83;99605.16;5093477;28;20051;-73
2022/03/04 05:37:29;;;;;;;40.20;15.87;;;;;;;0.93;64.74;99609.25;5092597;28;20063;-73
2022/03/04 05:39:59;;;;;;;62.83;22.53;;;;;;;0.98;64.73;99611.94;5093728;28;20398;-73
2022/03/04 05:42:28;;;;;;;52.75;21.73;;;;;;;1.04;65.01;99623.06;5095404;28;20052;-73
2022/03/04 05:44:57;;;;;;;58.57;22.87;;;;;;;1.08;64.38;99622.34;5097918;28;20043;-74
2022/03/04 05:47:26;;;;;;;60.97;22.42;;;;;;;1.10;64.42;99618.25;5096347;28;20109;-74
2022/03/04 05:49:55;;;;;;;71.20;23.97;;;;;;;1.16;64.41;99623.50;5097351;28;20044;-74
2022/03/04 05:52:24;;;;;;;58.47;22.27;;;;;;;1.19;64.22;99628.63;5097740;28;20517;-74
2022/03/04 05:54:53;;;;;;;60.87;23.33;;;;;;;1.16;64.01;99618.47;5097371;28;20322;-73
2022/03/04 05:57:23;;;;;;;61.22;22.67;;;;;;;1.29;63.86;99629.81;5097316;28;20040;-73
2022/03/04 05:59:52;;;;;;;61.78;23.08;;;;;;;1.30;64.33;99631.50;5097300;28;20055;-73
2022/03/04 06:02:21;;;;;;;59.47;23.13;;;;;;;1.33;64.00;99639.16;5097317;28;20048;-72
2022/03/04 06:04:50;;;;;;;66.88;24.70;;;;;;;1.21;64.04;99637.06;5097354;28;20281;-73
2022/03/04 06:07:19;;;;;;;74.53;27.57;;;;;;;1.19;64.21;99633.66;5097179;28;20036;-73
2022/03/04 06:09:48;;;;;;;47.95;19.58;;;;;;;1.23;64.16;99640.50;5096880;28;20395;-73
2022/03/04 06:12:17;;;;;;;67.60;24.00;;;;;;;1.23;64.55;99644.66;5097002;28;20047;-73
2022/03/04 06:14:48;;;;;;;74.70;25.43;;;;;;;1.24;64.08;99647.25;5097550;28;20040;-73
2022/03/04 06:17:17;;;;;;;66.43;24.77;;;;;;;1.32;64.09;99653.38;5100402;28;20105;-73
2022/03/04 06:19:46;;;;;;;61.63;21.25;;;;;;;1.42;64.33;99646.19;5097190;28;20051;-73
2022/03/04 06:22:18;;;;;;;;;;;;;;;1.52;63.61;99653.22;5097892;28;20071;-76
2022/03/04 06:24:47;;;;;;;60.50;20.98;;;;;;;1.69;63.73;99654.66;5096924;28;19920;-75
2022/03/04 06:27:16;;;;;;;56.70;20.50;;;;;;;1.75;63.29;99663.25;5096647;28;20040;-75
2022/03/04 06:29:44;;;;;;;55.67;22.15;;;;;;;1.65;63.24;99660.38;5095590;28;20417;-75
2022/03/04 06:32:15;;;;;;;70.82;22.92;;;;;;;1.73;62.94;99658.97;5096697;28;20089;-75
2022/03/04 06:34:44;;;;;;;60.13;22.40;;;;;;;1.62;63.34;99670.34;5096636;28;20044;-75
2022/03/04 06:37:13;;;;;;;73.47;25.07;;;;;;;1.58;63.37;99671.03;5095398;28;20506;-75
2022/03/04 06:39:42;;;;;;;57.88;23.50;;;;;;;1.41;63.26;99659.53;5096769;28;20106;-75
2022/03/04 06:42:11;;;;;;;56.83;24.13;;;;;;;1.54;63.83;99671.72;5096594;28;20062;-75
2022/03/04 06:44:40;;;;;;;58.00;22.83;;;;;;;1.56;63.61;99677.69;5096448;28;20048;-75
2022/03/04 06:47:09;;;;;;;54.95;22.05;;;;;;;1.68;63.67;99676.41;5096260;28;20047;-75
2022/03/04 06:49:40;;;;;;;46.10;16.48;;;;;;;1.69;63.48;99684.81;5096344;28;20118;-73
2022/03/04 06:52:09;;;;;;;61.78;21.92;;;;;;;1.62;63.59;99683.78;5096468;28;20078;-73
2022/03/04 06:54:39;;;;;;;61.47;23.80;;;;;;;1.58;63.12;99688.66;5095833;28;20032;-73
2022/03/04 06:57:08;;;;;;;67.55;24.52;;;;;;;1.53;63.18;99680.94;5096472;28;20050;-73
2022/03/04 06:59:36;;;;;;;59.13;23.00;;;;;;;1.58;63.19;99683.63;5096068;28;20093;-73
2022/03/04 07:02:06;;;;;;;68.80;25.03;;;;;;;1.70;63.02;99694.09;5096110;28;20044;-73
2022/03/04 07:04:35;;;;;;;57.03;22.20;;;;;;;1.65;62.73;99700.63;5096264;28;20050;-73
2022/03/04 07:07:06;;;;;;;65.18;23.98;;;;;;;1.50;62.47;99668.25;5095983;28;20040;-73
2022/03/04 07:09:35;;;;;;;59.20;21.83;;;;;;;1.78;62.21;99702.75;5096032;28;20501;-73
2022/03/04 07:12:04;;;;;;;58.07;23.07;;;;;;;1.84;62.28;99703.84;5095888;28;20048;-74
2022/03/04 07:14:33;;;;;;;58.63;22.92;;;;;;;1.84;61.92;99710.50;5096477;28;20311;-74
2022/03/04 07:17:02;;;;;;;37.20;14.73;;;;;;;1.82;62.17;99699.56;5096047;28;20040;-73
2022/03/04 07:19:31;;;;;;;58.88;21.65;;;;;;;1.81;62.19;99710.41;5096101;28;20090;-73
2022/03/04 07:22:00;;;;;;;49.60;20.52;;;;;;;1.82;61.41;99704.59;5095688;28;20048;-73
2022/03/04 07:24:30;;;;;;;47.77;19.37;;;;;;;1.85;61.44;99702.16;5095647;28;20044;-74
2022/03/04 07:26:59;;;;;;;56.50;20.85;;;;;;;1.85;61.70;99704.66;5095844;28;20385;-73
2022/03/04 07:29:28;;;;;;;60.63;22.67;;;;;;;2.01;61.72;99706.91;5095512;28;20490;-73
2022/03/04 07:31:57;;;;;;;67.32;23.02;;;;;;;2.09;61.51;99705.47;5095754;28;20478;-73
2022/03/04 07:34:26;;;;;;;38.70;17.23;;;;;;;2.11;60.97;99706.41;5095389;28;20052;-73
2022/03/04 07:36:56;;;;;;;;;;;;;;;2.15;61.33;99707.34;5094986;28;20279;-74
2022/03/04 07:39:25;;;;;;;62.75;20.92;;;;;;;2.13;60.77;99716.53;5094368;28;20010;-74
2022/03/04 07:41:55;;;;;;;52.97;20.83;;;;;;;2.12;61.13;99719.84;5095806;28;20461;-73
2022/03/04 07:44:28;;;;;;;58.10;21.75;;;;;;;2.14;61.00;99709.00;5095221;28;20048;-73
2022/03/04 07:46:57;;;;;;;52.25;21.35;;;;;;;2.13;60.56;99709.84;5095461;28;20048;-74
2022/03/04 07:49:26;;;;;;;58.92;21.98;;;;;;;2.37;60.77;99718.19;5095164;28;20044;-73
2022/03/04 07:51:55;;;;;;;58.83;21.67;;;;;;;2.45;60.40;99716.75;5095196;28;20067;-74
2022/03/04 07:54:24;;;;;;;59.58;22.13;;;;;;;2.38;59.64;99709.81;5102388;28;20044;-75
2022/03/04 07:56:55;;;;;;;55.23;20.70;;;;;;;2.35;59.53;99717.25;5095997;28;20036;-73
2022/03/04 07:59:26;;;;;;;56.08;21.15;;;;;;;2.35;60.25;99716.44;5095298;28;20055;-73
2022/03/04 08:01:55;;;;;;;55.53;22.05;;;;;;;2.43;59.56;99712.47;5095219;28;20494;-73
2022/03/04 08:04:24;;;;;;;53.22;23.15;;;;;;;2.44;60.08;99715.06;5102782;28;20036;-73
2022/03/04 08:06:53;;;;;;;60.33;20.87;;;;;;;2.44;59.65;99722.59;5105828;28;20028;-74
2022/03/04 08:09:21;;;;;;;53.53;21.83;;;;;;;2.38;59.59;99729.94;5110193;28;20520;-75
2022/03/04 08:11:50;;;;;;;55.08;21.42;;;;;;;2.65;59.67;99725.78;5115092;28;20551;-75
2022/03/04 08:14:19;;;;;;;50.90;19.63;;;;;;;3.25;58.49;99730.97;5115363;28;20039;-76
2022/03/04 08:16:51;;;;;;;51.75;19.65;;;;;;;3.62;58.21;99725.28;5108937;28;20324;-75
2022/03/04 08:19:21;;;;;;;56.30;20.85;;;;;;;3.83;56.73;99724.19;5114956;28;20047;-74
2022/03/04 08:21:50;;;;;;;56.67;21.25;;;;;;;4.00;55.95;99733.06;5114846;28;20516;-75
2022/03/04 08:24:39;;;;;;;;;;;;;;;3.73;56.79;99732.34;5115268;28;20044;-75
2022/03/04 08:27:08;;;;;;;45.53;18.42;;;;;;;4.15;56.15;99724.19;5112615;28;19931;-75
2022/03/04 08:29:38;;;;;;;49.95;18.38;;;;;;;4.60;55.10;99713.53;5094593;28;20446;-75
2022/03/04 08:32:09;;;;;;;50.83;19.45;;;;;;;4.84;53.65;99727.53;5093024;28;20044;-75
2022/03/04 08:34:39;;;;;;;52.03;19.15;;;;;;;5.18;53.06;99719.88;5094058;28;20127;-74
2022/03/04 08:37:08;;;;;;;42.53;17.10;;;;;;;5.02;51.55;99707.69;5094075;28;20031;-75
2022/03/04 08:39:37;;;;;;;36.90;15.23;;;;;;;5.21;51.50;99719.91;5102872;28;20105;-75
2022/03/04 08:42:08;;;;;;;44.45;17.20;;;;;;;5.10;51.22;99716.31;5102128;28;20563;-75
2022/03/04 08:44:37;;;;;;;45.78;16.33;;;;;;;5.40;50.65;99720.31;5102881;28;20035;-75
2022/03/04 08:47:08;;;;;;;32.83;12.57;;;;;;;5.48;49.57;99724.69;5102969;28;20051;-75
2022/03/04 08:49:37;;;;;;;38.60;16.35;;;;;;;5.06;48.66;99702.72;5103057;27;20047;-75
2022/03/04 08:52:06;;;;;;;43.27;17.10;;;;;;;4.86;48.96;99721.69;5102614;28;20044;-75
2022/03/04 08:54:35;;;;;;;;;;;;;;;4.63;49.08;99720.31;5103062;28;20272;-76
2022/03/04 08:57:05;;;;;;;38.95;14.32;;;;;;;4.51;49.45;99715.81;5104619;28;19920;-74
2022/03/04 08:59:34;;;;;;;42.25;14.80;;;;;;;4.70;49.50;99722.16;5086260;28;20060;-75
2022/03/04 09:02:04;;;;;;;38.75;13.85;;;;;;;4.87;49.61;99718.31;5102589;28;20028;-74
2022/03/04 09:04:35;;;;;;;38.38;15.38;;;;;;;4.83;48.74;99721.63;5103702;28;20559;-75
2022/03/04 09:07:06;;;;;;;35.85;13.27;;;;;;;4.77;48.42;99729.06;5104164;28;20134;-73
2022/03/04 09:09:36;;;;;;;43.53;15.05;;;;;;;4.57;48.25;99731.13;5113214;28;20485;-74
2022/03/04 09:12:07;;;;;;;33.22;13.63;;;;;;;4.63;48.64;99738.84;5114222;28;20032;-73
2022/03/04 09:14:36;;;;;;;31.88;12.55;;;;;;;4.81;48.39;99730.84;5114042;28;20481;-73
2022/03/04 09:17:06;;;;;;;36.17;14.00;;;;;;;4.79;48.35;99729.97;5113615;28;20038;-73
2022/03/04 09:19:37;;;;;;;33.58;12.35;;;;;;;4.84;47.82;99737.63;5114035;28;20058;-73
2022/03/04 09:22:24;;;;;;;31.52;13.15;;;;;;;4.87;47.95;99733.50;5114156;28;20116;-74
2022/03/04 09:24:53;;;;;;;31.27;12.57;;;;;;;4.78;47.56;99708.00;5110312;28;20062;-75
2022/03/04 09:27:22;;;;;;;31.50;14.02;;;;;;;5.06;47.36;99738.13;5093604;28;20048;-74
2022/03/04 09:29:51;;;;;;;34.33;13.20;;;;;;;4.98;47.53;99732.06;5093890;28;20035;-76
2022/03/04 09:32:21;;;;;;;34.25;13.23;;;;;;;5.01;47.47;99731.28;5093434;28;20040;-76
2022/03/04 09:34:51;;;;;;;35.57;12.50;;;;;;;5.69;45.86;99735.22;5093476;28;20055;-76
2022/03/04 09:37:20;;;;;;;33.90;12.55;;;;;;;6.16;45.51;99719.28;5094376;28;20044;-76
2022/03/04 09:39:49;;;;;;;29.00;12.17;;;;;;;6.85;44.64;99723.75;5097195;28;20511;-76
2022/03/04 09:42:21;;;;;;;28.63;11.37;;;;;;;7.11;43.52;99717.38;5106783;28;20470;-76
2022/03/04 09:44:50;;;;;;;34.38;11.60;;;;;;;7.12;42.68;99717.41;5101439;28;20055;-74
2022/03/04 09:47:22;;;;;;;34.92;11.43;;;;;;;7.25;42.58;99720.94;5093972;28;20058;-74
2022/03/04 09:49:54;;;;;;;29.02;10.85;;;;;;;7.58;42.48;99712.91;5093245;28;20047;-74
2022/03/04 09:52:23;;;;;;;22.83;10.75;;;;;;;8.07;41.87;99708.34;5093575;28;20472;-75
2022/03/04 09:54:53;;;;;;;20.48;8.32;;;;;;;7.84;41.33;99717.44;5093508;28;20043;-75
2022/03/04 09:57:22;;;;;;;27.17;10.25;;;;;;;7.70;40.70;99710.50;5093143;28;20102;-74
2022/03/04 09:59:51;;;;;;;21.63;8.43;;;;;;;8.26;40.73;99703.41;5093561;28;20036;-75
2022/03/04 10:02:21;;;;;;;24.03;9.50;;;;;;;8.71;40.53;99704.66;5093217;28;20040;-76
2022/03/04 10:04:59;;;;;;;20.83;8.50;;;;;;;8.79;40.01;99702.19;5093375;28;20070;-75
2022/03/04 10:07:37;;;;;;;22.08;8.52;;;;;;;9.12;39.58;99697.28;5093571;28;20076;-77
2022/03/04 10:10:12;;;;;;;24.58;8.93;;;;;;;8.53;38.17;99652.81;5093317;28;20383;-76
2022/03/04 10:12:49;;;;;;;21.10;9.20;;;;;;;8.44;37.67;99693.44;5093670;28;20064;-76
2022/03/04 10:15:20;;;;;;;18.55;7.93;;;;;;;8.69;37.30;99690.22;5091963;28;20082;-75
2022/03/04 10:18:01;;;;;;;15.90;7.38;;;;;;;8.54;36.84;99690.16;5093426;28;20073;-75
2022/03/04 10:20:39;;;;;;;16.85;7.90;;;;;;;8.35;36.51;99693.38;5093822;28;20048;-75
2022/03/04 10:23:20;;;;;;;20.55;8.68;;;;;;;8.55;37.43;99689.28;5098648;28;20051;-75
2022/03/04 10:25:51;;;;;;;18.00;8.38;;;;;;;8.40;37.32;99687.47;5104792;28;20051;-74
2022/03/04 10:28:23;;;;;;;19.25;7.72;;;;;;;8.25;37.63;99668.69;5114663;28;20067;-75
2022/03/04 10:30:54;;;;;;;22.63;8.23;;;;;;;9.24;37.19;99676.97;5117339;28;20401;-75
2022/03/04 10:33:25;;;;;;;18.90;7.88;;;;;;;8.99;37.35;99679.41;5117101;28;20036;-74
2022/03/04 10:36:10;;;;;;;18.90;8.25;;;;;;;8.86;37.39;99673.38;5117409;28;20067;-74
2022/03/04 10:38:41;;;;;;;18.25;8.38;;;;;;;8.97;38.62;99681.09;5117192;27;20056;-74
2022/03/04 10:41:21;;;;;;;18.90;7.13;;;;;;;9.16;37.91;99676.13;5110586;28;20039;-75
2022/03/04 10:43:51;;;;;;;17.75;7.45;;;;;;;8.49;38.13;99679.09;5097379;28;20052;-76
2022/03/04 10:46:20;;;;;;;15.85;7.07;;;;;;;8.72;37.74;99667.38;5095247;28;20054;-75
2022/03/04 10:48:54;;;;;;;17.10;7.07;;;;;;;8.42;37.33;99675.63;5099783;28;20059;-74
2022/03/04 10:51:36;;;;;;;16.55;7.90;;;;;;;8.46;38.13;99671.41;5113424;28;20043;-74
2022/03/04 10:54:13;;;;;;;18.73;7.75;;;;;;;8.83;37.83;99663.19;5116846;28;20059;-73
2022/03/04 10:56:51;;;;;;;19.70;7.63;;;;;;;8.07;38.12;99665.13;5116657;27;20051;-74
2022/03/04 10:59:20;;;;;;;14.00;6.97;;;;;;;8.95;38.49;99668.34;5116531;28;20512;-75
2022/03/04 11:01:50;;;;;;;16.80;6.25;;;;;;;9.29;38.32;99657.47;5116754;28;20042;-74
2022/03/04 11:04:20;;;;;;;17.25;7.63;;;;;;;9.43;36.89;99671.09;5117365;28;20051;-75
2022/03/04 11:06:51;;;;;;;16.20;6.65;;;;;;;9.53;36.56;99663.50;5115736;28;20096;-75
2022/03/04 11:09:24;;;;;;;14.32;7.38;;;;;;;9.44;37.29;99670.28;5105025;28;20093;-74
2022/03/04 11:11:55;;;;;;;17.98;7.35;;;;;;;9.25;36.41;99668.50;5108625;28;20396;-75
2022/03/04 11:14:24;;;;;;;17.25;7.45;;;;;;;9.71;36.86;99673.75;5116341;28;20127;-74
2022/03/04 11:16:54;;;;;;;14.82;6.95;;;;;;;9.08;37.12;99674.34;5114452;28;20546;-74
2022/03/04 11:19:23;;;;;;;;;;;;;;;9.27;37.04;99671.91;5115693;28;20043;-74
2022/03/04 11:21:54;;;;;;;13.18;6.25;;;;;;;9.92;36.78;99664.47;5116104;28;19993;-75
2022/03/04 11:24:30;;;;;;;14.10;6.78;;;;;;;8.91;37.25;99661.53;5116321;28;20044;-75
2022/03/04 11:27:05;;;;;;;13.70;6.85;;;;;;;8.48;38.30;99667.19;5116003;28;20138;-75
2022/03/04 11:29:36;;;;;;;16.20;6.90;;;;;;;8.66;38.61;99674.97;5115028;28;20040;-75
2022/03/04 11:32:06;;;;;;;14.75;6.32;;;;;;;8.44;38.44;99668.88;5115851;28;20047;-75
2022/03/04 11:34:36;;;;;;;14.32;6.47;;;;;;;8.42;38.96;99677.34;5116849;28;20062;-74
2022/03/04 11:37:15;;;;;;;;;;;;;;;8.58;38.41;99666.44;5116470;28;20048;-74
2022/03/04 11:40:32;;;;;;;12.65;5.22;;;;;;;8.07;38.33;99671.91;5109041;28;20396;-74
2022/03/04 11:42:56;;;;;;;13.77;5.90;;;;;;;8.38;38.09;99665.41;5095180;28;20123;-75